sensor_id;sensor_type;location;lat;lon;timestamp;P1;durP1;ratioP1;P2;durP2;ratioP2
70981;SDS011;58640;51.320;9.456;2022-11-04T00:01:47;6.00;;;3.42;;
70981;SDS011;58640;51.320;9.456;2022-11-04T00:04:14;9.98;;;4.05;;
70981;SDS011;58640;51.320;9.456;2022-11-04T00:06:40;4.53;;;3.63;;
70981;SDS011;58640;51.320;9.456;2022-11-04T00:09:07;5.93;;;3.88;;
70981;SDS011;58640;51.320;9.456;2022-11-04T00:11:34;6.53;;;3.63;;
70981;SDS011;58640;51.320;9.456;2022-11-04T00:14:18;5.93;;;3.70;;
70981;SDS011;58640;51.320;9.456;2022-11-04T00:16:44;6.90;;;3.42;;
70981;SDS011;58640;51.320;9.456;2022-11-04T00:19:28;4.45;;;3.70;;
70981;SDS011;58640;51.320;9.456;2022-11-04T00:22:14;4.43;;;3.28;;
70981;SDS011;58640;51.320;9.456;2022-11-04T00:24:59;5.13;;;3.53;;
70981;SDS011;58640;51.320;9.456;2022-11-04T00:27:43;6.50;;;3.47;;
70981;SDS011;58640;51.320;9.456;2022-11-04T00:30:26;5.20;;;3.35;;
70981;SDS011;58640;51.320;9.456;2022-11-04T00:32:52;5.55;;;3.70;;
70981;SDS011;58640;51.320;9.456;2022-11-04T00:35:36;6.60;;;3.78;;
70981;SDS011;58640;51.320;9.456;2022-11-04T00:38:01;7.18;;;3.50;;
70981;SDS011;58640;51.320;9.456;2022-11-04T00:40:26;5.05;;;3.22;;
70981;SDS011;58640;51.320;9.456;2022-11-04T00:42:52;4.55;;;3.38;;
70981;SDS011;58640;51.320;9.456;2022-11-04T00:45:17;5.68;;;3.15;;
70981;SDS011;58640;51.320;9.456;2022-11-04T00:47:43;3.85;;;3.13;;
70981;SDS011;58640;51.320;9.456;2022-11-04T00:50:08;8.32;;;3.53;;
70981;SDS011;58640;51.320;9.456;2022-11-04T00:52:34;6.75;;;3.08;;
70981;SDS011;58640;51.320;9.456;2022-11-04T00:54:59;5.07;;;3.63;;
70981;SDS011;58640;51.320;9.456;2022-11-04T00:57:24;4.07;;;2.95;;
70981;SDS011;58640;51.320;9.456;2022-11-04T00:59:50;3.88;;;3.08;;
70981;SDS011;58640;51.320;9.456;2022-11-04T01:02:15;4.78;;;3.03;;
70981;SDS011;58640;51.320;9.456;2022-11-04T01:04:40;3.03;;;2.42;;
70981;SDS011;58640;51.320;9.456;2022-11-04T01:07:06;4.65;;;2.70;;
70981;SDS011;58640;51.320;9.456;2022-11-04T01:09:31;6.07;;;2.53;;
70981;SDS011;58640;51.320;9.456;2022-11-04T01:11:57;3.78;;;2.80;;
70981;SDS011;58640;51.320;9.456;2022-11-04T01:14:22;3.00;;;2.63;;
70981;SDS011;58640;51.320;9.456;2022-11-04T01:16:48;3.42;;;2.42;;
70981;SDS011;58640;51.320;9.456;2022-11-04T01:19:14;8.48;;;2.88;;
70981;SDS011;58640;51.320;9.456;2022-11-04T01:21:39;4.30;;;2.58;;
70981;SDS011;58640;51.320;9.456;2022-11-04T01:24:04;2.90;;;2.40;;
70981;SDS011;58640;51.320;9.456;2022-11-04T01:26:30;2.95;;;2.38;;
70981;SDS011;58640;51.320;9.456;2022-11-04T01:28:56;4.30;;;2.95;;
70981;SDS011;58640;51.320;9.456;2022-11-04T01:31:23;3.88;;;2.63;;
70981;SDS011;58640;51.320;9.456;2022-11-04T01:33:50;2.88;;;2.25;;
70981;SDS011;58640;51.320;9.456;2022-11-04T01:36:18;2.45;;;2.20;;
70981;SDS011;58640;51.320;9.456;2022-11-04T01:38:44;4.88;;;2.38;;
70981;SDS011;58640;51.320;9.456;2022-11-04T01:41:14;2.42;;;2.22;;
70981;SDS011;58640;51.320;9.456;2022-11-04T01:43:54;3.22;;;1.83;;
70981;SDS011;58640;51.320;9.456;2022-11-04T01:51:56;3.80;;;2.42;;
70981;SDS011;58640;51.320;9.456;2022-11-04T01:54:30;2.65;;;2.28;;
70981;SDS011;58640;51.320;9.456;2022-11-04T01:56:57;3.22;;;2.13;;
70981;SDS011;58640;51.320;9.456;2022-11-04T01:59:27;3.47;;;2.40;;
70981;SDS011;58640;51.320;9.456;2022-11-04T02:01:57;3.60;;;2.58;;
70981;SDS011;58640;51.320;9.456;2022-11-04T02:04:22;2.33;;;2.17;;
70981;SDS011;58640;51.320;9.456;2022-11-04T02:06:54;3.88;;;2.28;;
70981;SDS011;58640;51.320;9.456;2022-11-04T02:09:21;2.75;;;1.98;;
70981;SDS011;58640;51.320;9.456;2022-11-04T02:11:48;4.18;;;1.60;;
70981;SDS011;58640;51.320;9.456;2022-11-04T02:14:32;2.85;;;1.40;;
70981;SDS011;58640;51.320;9.456;2022-11-04T02:31:06;1.25;;;0.70;;
70981;SDS011;58640;51.320;9.456;2022-11-04T02:33:40;0.80;;;0.80;;
70981;SDS011;58640;51.320;9.456;2022-11-04T02:39:05;0.50;;;0.50;;
70981;SDS011;58640;51.320;9.456;2022-11-04T02:41:54;1.10;;;0.68;;
70981;SDS011;58640;51.320;9.456;2022-11-04T02:44:32;0.85;;;0.60;;
70981;SDS011;58640;51.320;9.456;2022-11-04T02:46:59;3.40;;;0.40;;
70981;SDS011;58640;51.320;9.456;2022-11-04T02:51:57;0.75;;;0.40;;
70981;SDS011;58640;51.320;9.456;2022-11-04T02:54:40;0.32;;;0.32;;
70981;SDS011;58640;51.320;9.456;2022-11-04T02:57:11;0.50;;;0.50;;
70981;SDS011;58640;51.320;9.456;2022-11-04T02:59:43;0.73;;;0.60;;
70981;SDS011;58640;51.320;9.456;2022-11-04T03:02:18;0.52;;;0.30;;
70981;SDS011;58640;51.320;9.456;2022-11-04T03:04:49;1.85;;;0.30;;
70981;SDS011;58640;51.320;9.456;2022-11-04T03:07:17;0.20;;;0.20;;
70981;SDS011;58640;51.320;9.456;2022-11-04T03:09:48;0.50;;;0.50;;
70981;SDS011;58640;51.320;9.456;2022-11-04T03:12:19;0.47;;;0.47;;
70981;SDS011;58640;51.320;9.456;2022-11-04T03:14:51;0.40;;;0.40;;
70981;SDS011;58640;51.320;9.456;2022-11-04T03:17:31;0.40;;;0.30;;
70981;SDS011;58640;51.320;9.456;2022-11-04T03:20:15;0.50;;;0.45;;
70981;SDS011;58640;51.320;9.456;2022-11-04T03:22:44;0.55;;;0.55;;
70981;SDS011;58640;51.320;9.456;2022-11-04T03:25:10;0.63;;;0.30;;
70981;SDS011;58640;51.320;9.456;2022-11-04T03:30:16;0.68;;;0.68;;
70981;SDS011;58640;51.320;9.456;2022-11-04T03:35:33;0.40;;;0.30;;
70981;SDS011;58640;51.320;9.456;2022-11-04T03:37:58;0.68;;;0.30;;
70981;SDS011;58640;51.320;9.456;2022-11-04T03:40:24;0.43;;;0.40;;
70981;SDS011;58640;51.320;9.456;2022-11-04T03:43:00;0.45;;;0.35;;
70981;SDS011;58640;51.320;9.456;2022-11-04T03:45:31;0.40;;;0.40;;
70981;SDS011;58640;51.320;9.456;2022-11-04T03:47:56;0.35;;;0.35;;
70981;SDS011;58640;51.320;9.456;2022-11-04T03:50:25;0.95;;;0.40;;
70981;SDS011;58640;51.320;9.456;2022-11-04T03:52:52;0.63;;;0.40;;
70981;SDS011;58640;51.320;9.456;2022-11-04T03:55:19;1.70;;;0.40;;
70981;SDS011;58640;51.320;9.456;2022-11-04T03:57:56;1.33;;;0.50;;
70981;SDS011;58640;51.320;9.456;2022-11-04T04:00:28;0.88;;;0.60;;
70981;SDS011;58640;51.320;9.456;2022-11-04T04:03:01;0.73;;;0.47;;
70981;SDS011;58640;51.320;9.456;2022-11-04T04:08:38;1.05;;;0.40;;
70981;SDS011;58640;51.320;9.456;2022-11-04T04:17:02;3.13;;;0.50;;
70981;SDS011;58640;51.320;9.456;2022-11-04T04:20:12;1.08;;;0.52;;
70981;SDS011;58640;51.320;9.456;2022-11-04T04:22:39;0.75;;;0.30;;
70981;SDS011;58640;51.320;9.456;2022-11-04T04:25:09;0.68;;;0.65;;
70981;SDS011;58640;51.320;9.456;2022-11-04T04:27:57;0.52;;;0.50;;
70981;SDS011;58640;51.320;9.456;2022-11-04T04:30:24;0.40;;;0.40;;
70981;SDS011;58640;51.320;9.456;2022-11-04T04:32:57;0.93;;;0.50;;
70981;SDS011;58640;51.320;9.456;2022-11-04T04:35:35;0.68;;;0.50;;
70981;SDS011;58640;51.320;9.456;2022-11-04T04:38:06;0.40;;;0.40;;
70981;SDS011;58640;51.320;9.456;2022-11-04T04:40:57;0.40;;;0.40;;
70981;SDS011;58640;51.320;9.456;2022-11-04T04:43:46;1.17;;;0.80;;
70981;SDS011;58640;51.320;9.456;2022-11-04T04:46:30;2.58;;;0.90;;
70981;SDS011;58640;51.320;9.456;2022-11-04T04:49:03;1.30;;;0.93;;
70981;SDS011;58640;51.320;9.456;2022-11-04T04:51:29;1.00;;;0.80;;
70981;SDS011;58640;51.320;9.456;2022-11-04T04:53:55;1.45;;;0.85;;
70981;SDS011;58640;51.320;9.456;2022-11-04T04:56:20;0.95;;;0.95;;
70981;SDS011;58640;51.320;9.456;2022-11-04T04:58:46;1.45;;;1.00;;
70981;SDS011;58640;51.320;9.456;2022-11-04T05:01:11;2.03;;;0.95;;
70981;SDS011;58640;51.320;9.456;2022-11-04T05:03:36;1.17;;;1.17;;
70981;SDS011;58640;51.320;9.456;2022-11-04T05:06:02;1.45;;;0.93;;
70981;SDS011;58640;51.320;9.456;2022-11-04T05:08:27;2.13;;;1.23;;
70981;SDS011;58640;51.320;9.456;2022-11-04T05:10:52;5.13;;;1.77;;
70981;SDS011;58640;51.320;9.456;2022-11-04T05:13:18;2.00;;;1.25;;
70981;SDS011;58640;51.320;9.456;2022-11-04T05:15:54;2.67;;;1.05;;
70981;SDS011;58640;51.320;9.456;2022-11-04T05:18:21;1.75;;;1.30;;
70981;SDS011;58640;51.320;9.456;2022-11-04T05:20:47;1.25;;;1.15;;
70981;SDS011;58640;51.320;9.456;2022-11-04T05:23:12;1.42;;;1.33;;
70981;SDS011;58640;51.320;9.456;2022-11-04T05:25:38;6.05;;;1.45;;
70981;SDS011;58640;51.320;9.456;2022-11-04T05:28:05;1.52;;;1.25;;
70981;SDS011;58640;51.320;9.456;2022-11-04T05:30:31;2.40;;;1.58;;
70981;SDS011;58640;51.320;9.456;2022-11-04T05:32:57;3.83;;;1.65;;
70981;SDS011;58640;51.320;9.456;2022-11-04T05:35:22;2.38;;;1.35;;
70981;SDS011;58640;51.320;9.456;2022-11-04T05:37:47;1.20;;;1.10;;
70981;SDS011;58640;51.320;9.456;2022-11-04T05:40:13;3.42;;;1.38;;
70981;SDS011;58640;51.320;9.456;2022-11-04T05:42:38;1.10;;;1.00;;
70981;SDS011;58640;51.320;9.456;2022-11-04T05:45:04;0.90;;;0.90;;
70981;SDS011;58640;51.320;9.456;2022-11-04T05:47:30;1.35;;;1.25;;
70981;SDS011;58640;51.320;9.456;2022-11-04T05:49:55;1.73;;;1.30;;
70981;SDS011;58640;51.320;9.456;2022-11-04T05:52:20;1.55;;;1.45;;
70981;SDS011;58640;51.320;9.456;2022-11-04T05:54:46;2.03;;;1.65;;
70981;SDS011;58640;51.320;9.456;2022-11-04T05:57:11;2.33;;;1.20;;
70981;SDS011;58640;51.320;9.456;2022-11-04T05:59:37;3.13;;;1.83;;
70981;SDS011;58640;51.320;9.456;2022-11-04T06:02:02;1.30;;;1.10;;
70981;SDS011;58640;51.320;9.456;2022-11-04T06:04:28;1.98;;;1.73;;
70981;SDS011;58640;51.320;9.456;2022-11-04T06:06:53;3.03;;;1.95;;
70981;SDS011;58640;51.320;9.456;2022-11-04T06:09:19;2.78;;;1.20;;
70981;SDS011;58640;51.320;9.456;2022-11-04T06:11:44;3.45;;;1.77;;
70981;SDS011;58640;51.320;9.456;2022-11-04T06:14:10;2.33;;;1.40;;
70981;SDS011;58640;51.320;9.456;2022-11-04T06:16:36;3.75;;;1.60;;
70981;SDS011;58640;51.320;9.456;2022-11-04T06:19:02;1.65;;;1.38;;
70981;SDS011;58640;51.320;9.456;2022-11-04T06:21:28;1.50;;;1.30;;
70981;SDS011;58640;51.320;9.456;2022-11-04T06:23:55;2.03;;;1.58;;
70981;SDS011;58640;51.320;9.456;2022-11-04T06:26:22;3.28;;;2.10;;
70981;SDS011;58640;51.320;9.456;2022-11-04T06:28:49;2.22;;;1.98;;
70981;SDS011;58640;51.320;9.456;2022-11-04T06:31:15;4.32;;;1.73;;
70981;SDS011;58640;51.320;9.456;2022-11-04T06:33:41;2.58;;;1.92;;
70981;SDS011;58640;51.320;9.456;2022-11-04T06:36:07;5.03;;;1.95;;
70981;SDS011;58640;51.320;9.456;2022-11-04T06:38:36;2.17;;;1.38;;
70981;SDS011;58640;51.320;9.456;2022-11-04T06:41:02;1.95;;;1.75;;
70981;SDS011;58640;51.320;9.456;2022-11-04T06:43:30;1.48;;;1.38;;
70981;SDS011;58640;51.320;9.456;2022-11-04T06:45:55;2.10;;;1.50;;
70981;SDS011;58640;51.320;9.456;2022-11-04T06:48:23;2.05;;;1.13;;
70981;SDS011;58640;51.320;9.456;2022-11-04T06:50:49;2.78;;;1.20;;
70981;SDS011;58640;51.320;9.456;2022-11-04T06:53:14;3.28;;;1.10;;
70981;SDS011;58640;51.320;9.456;2022-11-04T06:55:40;2.53;;;1.00;;
70981;SDS011;58640;51.320;9.456;2022-11-04T06:58:05;1.30;;;1.15;;
70981;SDS011;58640;51.320;9.456;2022-11-04T07:00:31;1.48;;;1.20;;
70981;SDS011;58640;51.320;9.456;2022-11-04T07:02:56;2.50;;;1.33;;
70981;SDS011;58640;51.320;9.456;2022-11-04T07:05:22;1.92;;;1.20;;
70981;SDS011;58640;51.320;9.456;2022-11-04T07:07:47;3.63;;;1.35;;
70981;SDS011;58640;51.320;9.456;2022-11-04T07:10:13;1.35;;;1.10;;
70981;SDS011;58640;51.320;9.456;2022-11-04T07:12:38;4.72;;;1.90;;
70981;SDS011;58640;51.320;9.456;2022-11-04T07:15:04;4.55;;;1.70;;
70981;SDS011;58640;51.320;9.456;2022-11-04T07:17:29;1.50;;;1.33;;
70981;SDS011;58640;51.320;9.456;2022-11-04T07:19:55;1.73;;;1.38;;
70981;SDS011;58640;51.320;9.456;2022-11-04T07:25:13;1.75;;;1.23;;
70981;SDS011;58640;51.320;9.456;2022-11-04T07:27:39;4.60;;;1.70;;
70981;SDS011;58640;51.320;9.456;2022-11-04T07:30:05;2.60;;;1.50;;
70981;SDS011;58640;51.320;9.456;2022-11-04T07:32:31;1.95;;;1.30;;
70981;SDS011;58640;51.320;9.456;2022-11-04T07:34:56;2.38;;;1.30;;
70981;SDS011;58640;51.320;9.456;2022-11-04T07:37:22;5.00;;;1.15;;
70981;SDS011;58640;51.320;9.456;2022-11-04T07:39:47;1.45;;;1.30;;
70981;SDS011;58640;51.320;9.456;2022-11-04T07:42:12;3.38;;;1.40;;
70981;SDS011;58640;51.320;9.456;2022-11-04T07:44:38;3.80;;;1.10;;
70981;SDS011;58640;51.320;9.456;2022-11-04T07:47:03;1.60;;;1.15;;
70981;SDS011;58640;51.320;9.456;2022-11-04T07:49:29;3.67;;;1.10;;
70981;SDS011;58640;51.320;9.456;2022-11-04T07:51:54;4.35;;;1.45;;
70981;SDS011;58640;51.320;9.456;2022-11-04T07:54:19;2.25;;;1.33;;
70981;SDS011;58640;51.320;9.456;2022-11-04T07:56:45;4.55;;;1.23;;
70981;SDS011;58640;51.320;9.456;2022-11-04T07:59:10;4.35;;;1.58;;
70981;SDS011;58640;51.320;9.456;2022-11-04T08:01:35;4.25;;;1.40;;
70981;SDS011;58640;51.320;9.456;2022-11-04T08:04:01;3.53;;;1.17;;
70981;SDS011;58640;51.320;9.456;2022-11-04T08:06:26;3.92;;;1.80;;
70981;SDS011;58640;51.320;9.456;2022-11-04T08:08:51;2.17;;;1.35;;
70981;SDS011;58640;51.320;9.456;2022-11-04T08:11:21;3.35;;;1.48;;
70981;SDS011;58640;51.320;9.456;2022-11-04T08:13:49;1.88;;;1.10;;
70981;SDS011;58640;51.320;9.456;2022-11-04T08:16:15;3.13;;;1.27;;
70981;SDS011;58640;51.320;9.456;2022-11-04T08:18:43;2.75;;;1.40;;
70981;SDS011;58640;51.320;9.456;2022-11-04T08:21:10;4.57;;;2.15;;
70981;SDS011;58640;51.320;9.456;2022-11-04T08:23:36;5.38;;;1.83;;
70981;SDS011;58640;51.320;9.456;2022-11-04T08:26:02;2.75;;;1.10;;
70981;SDS011;58640;51.320;9.456;2022-11-04T08:28:32;3.40;;;1.17;;
70981;SDS011;58640;51.320;9.456;2022-11-04T08:31:00;1.75;;;1.27;;
70981;SDS011;58640;51.320;9.456;2022-11-04T08:33:28;3.20;;;1.48;;
70981;SDS011;58640;51.320;9.456;2022-11-04T08:35:57;2.63;;;1.30;;
70981;SDS011;58640;51.320;9.456;2022-11-04T08:38:24;4.35;;;1.50;;
70981;SDS011;58640;51.320;9.456;2022-11-04T08:40:49;3.33;;;1.27;;
70981;SDS011;58640;51.320;9.456;2022-11-04T08:43:15;3.47;;;1.77;;
70981;SDS011;58640;51.320;9.456;2022-11-04T08:45:40;3.88;;;1.50;;
70981;SDS011;58640;51.320;9.456;2022-11-04T08:48:07;4.57;;;1.52;;
70981;SDS011;58640;51.320;9.456;2022-11-04T08:50:33;3.72;;;1.73;;
70981;SDS011;58640;51.320;9.456;2022-11-04T08:52:59;5.18;;;2.17;;
70981;SDS011;58640;51.320;9.456;2022-11-04T08:55:27;2.05;;;1.83;;
70981;SDS011;58640;51.320;9.456;2022-11-04T08:57:53;4.63;;;1.50;;
70981;SDS011;58640;51.320;9.456;2022-11-04T09:00:18;4.43;;;1.30;;
70981;SDS011;58640;51.320;9.456;2022-11-04T09:02:44;1.63;;;1.23;;
70981;SDS011;58640;51.320;9.456;2022-11-04T09:05:10;1.85;;;1.17;;
70981;SDS011;58640;51.320;9.456;2022-11-04T09:07:36;3.30;;;1.00;;
70981;SDS011;58640;51.320;9.456;2022-11-04T09:10:01;2.40;;;1.20;;
70981;SDS011;58640;51.320;9.456;2022-11-04T09:12:27;3.45;;;1.10;;
70981;SDS011;58640;51.320;9.456;2022-11-04T09:14:53;4.85;;;1.20;;
70981;SDS011;58640;51.320;9.456;2022-11-04T09:17:18;2.75;;;1.20;;
70981;SDS011;58640;51.320;9.456;2022-11-04T09:19:43;5.88;;;1.30;;
70981;SDS011;58640;51.320;9.456;2022-11-04T09:22:09;6.45;;;1.23;;
70981;SDS011;58640;51.320;9.456;2022-11-04T09:24:34;13.93;;;1.40;;
70981;SDS011;58640;51.320;9.456;2022-11-04T09:27:00;2.72;;;1.08;;
70981;SDS011;58640;51.320;9.456;2022-11-04T09:29:25;4.68;;;2.05;;
70981;SDS011;58640;51.320;9.456;2022-11-04T09:31:50;1.73;;;1.00;;
70981;SDS011;58640;51.320;9.456;2022-11-04T09:34:16;3.47;;;1.15;;
70981;SDS011;58640;51.320;9.456;2022-11-04T09:36:42;1.63;;;1.13;;
70981;SDS011;58640;51.320;9.456;2022-11-04T09:39:08;2.40;;;1.15;;
70981;SDS011;58640;51.320;9.456;2022-11-04T09:44:34;2.35;;;1.05;;
70981;SDS011;58640;51.320;9.456;2022-11-04T09:47:02;3.65;;;1.20;;
70981;SDS011;58640;51.320;9.456;2022-11-04T09:49:28;1.60;;;1.17;;
70981;SDS011;58640;51.320;9.456;2022-11-04T09:51:58;1.52;;;1.02;;
70981;SDS011;58640;51.320;9.456;2022-11-04T09:54:38;5.93;;;0.90;;
70981;SDS011;58640;51.320;9.456;2022-11-04T09:57:12;2.40;;;1.20;;
70981;SDS011;58640;51.320;9.456;2022-11-04T09:59:41;2.78;;;1.05;;
70981;SDS011;58640;51.320;9.456;2022-11-04T10:07:53;3.15;;;0.80;;
70981;SDS011;58640;51.320;9.456;2022-11-04T10:13:28;2.92;;;1.35;;
70981;SDS011;58640;51.320;9.456;2022-11-04T10:16:15;3.20;;;1.13;;
70981;SDS011;58640;51.320;9.456;2022-11-04T10:24:40;1.25;;;1.00;;
70981;SDS011;58640;51.320;9.456;2022-11-04T10:27:11;10.15;;;1.60;;
70981;SDS011;58640;51.320;9.456;2022-11-04T10:32:37;2.47;;;0.90;;
70981;SDS011;58640;51.320;9.456;2022-11-04T10:38:16;1.85;;;0.65;;
70981;SDS011;58640;51.320;9.456;2022-11-04T10:40:46;2.97;;;0.75;;
70981;SDS011;58640;51.320;9.456;2022-11-04T10:43:17;2.33;;;0.90;;
70981;SDS011;58640;51.320;9.456;2022-11-04T10:48:35;2.47;;;0.75;;
70981;SDS011;58640;51.320;9.456;2022-11-04T10:51:09;4.50;;;1.10;;
70981;SDS011;58640;51.320;9.456;2022-11-04T10:53:34;3.47;;;1.30;;
70981;SDS011;58640;51.320;9.456;2022-11-04T10:58:43;4.47;;;1.17;;
70981;SDS011;58640;51.320;9.456;2022-11-04T11:01:24;4.47;;;0.88;;
70981;SDS011;58640;51.320;9.456;2022-11-04T11:03:50;3.90;;;0.85;;
70981;SDS011;58640;51.320;9.456;2022-11-04T11:06:26;4.15;;;0.90;;
70981;SDS011;58640;51.320;9.456;2022-11-04T11:09:10;2.53;;;0.85;;
70981;SDS011;58640;51.320;9.456;2022-11-04T11:11:44;4.60;;;1.10;;
70981;SDS011;58640;51.320;9.456;2022-11-04T11:14:19;5.45;;;0.77;;
70981;SDS011;58640;51.320;9.456;2022-11-04T11:17:18;3.47;;;0.70;;
70981;SDS011;58640;51.320;9.456;2022-11-04T11:22:41;2.80;;;0.90;;
70981;SDS011;58640;51.320;9.456;2022-11-04T11:25:27;6.88;;;1.08;;
70981;SDS011;58640;51.320;9.456;2022-11-04T11:27:57;4.22;;;1.00;;
70981;SDS011;58640;51.320;9.456;2022-11-04T11:30:25;3.22;;;0.95;;
70981;SDS011;58640;51.320;9.456;2022-11-04T11:33:14;1.42;;;0.75;;
70981;SDS011;58640;51.320;9.456;2022-11-04T11:35:53;6.68;;;0.90;;
70981;SDS011;58640;51.320;9.456;2022-11-04T11:38:29;5.50;;;1.02;;
70981;SDS011;58640;51.320;9.456;2022-11-04T11:43:37;2.05;;;0.70;;
70981;SDS011;58640;51.320;9.456;2022-11-04T11:46:06;2.83;;;1.27;;
70981;SDS011;58640;51.320;9.456;2022-11-04T11:48:37;6.53;;;1.23;;
70981;SDS011;58640;51.320;9.456;2022-11-04T11:51:05;4.03;;;1.00;;
70981;SDS011;58640;51.320;9.456;2022-11-04T11:53:31;2.63;;;0.80;;
70981;SDS011;58640;51.320;9.456;2022-11-04T11:58:54;3.33;;;1.80;;
70981;SDS011;58640;51.320;9.456;2022-11-04T12:01:35;1.73;;;0.75;;
70981;SDS011;58640;51.320;9.456;2022-11-04T12:04:06;2.35;;;0.68;;
70981;SDS011;58640;51.320;9.456;2022-11-04T12:06:52;0.95;;;0.50;;
70981;SDS011;58640;51.320;9.456;2022-11-04T12:22:45;4.18;;;0.90;;
70981;SDS011;58640;51.320;9.456;2022-11-04T12:34:35;6.95;;;0.77;;
70981;SDS011;58640;51.320;9.456;2022-11-04T12:44:52;6.50;;;1.27;;
70981;SDS011;58640;51.320;9.456;2022-11-04T12:47:51;5.35;;;0.90;;
70981;SDS011;58640;51.320;9.456;2022-11-04T12:53:05;2.25;;;0.70;;
70981;SDS011;58640;51.320;9.456;2022-11-04T13:00:59;1.40;;;0.73;;
70981;SDS011;58640;51.320;9.456;2022-11-04T13:03:37;7.18;;;0.95;;
70981;SDS011;58640;51.320;9.456;2022-11-04T13:09:10;5.93;;;0.90;;
70981;SDS011;58640;51.320;9.456;2022-11-04T13:14:29;2.85;;;1.00;;
70981;SDS011;58640;51.320;9.456;2022-11-04T13:17:00;11.30;;;1.58;;
70981;SDS011;58640;51.320;9.456;2022-11-04T13:19:45;4.78;;;1.02;;
70981;SDS011;58640;51.320;9.456;2022-11-04T13:22:16;4.70;;;0.73;;
70981;SDS011;58640;51.320;9.456;2022-11-04T13:24:54;5.88;;;0.90;;
70981;SDS011;58640;51.320;9.456;2022-11-04T13:27:25;2.75;;;1.00;;
70981;SDS011;58640;51.320;9.456;2022-11-04T13:29:59;3.03;;;0.85;;
70981;SDS011;58640;51.320;9.456;2022-11-04T13:33:07;5.03;;;0.63;;
70981;SDS011;58640;51.320;9.456;2022-11-04T13:35:33;4.07;;;0.82;;
70981;SDS011;58640;51.320;9.456;2022-11-04T13:38:08;3.53;;;0.60;;
70981;SDS011;58640;51.320;9.456;2022-11-04T13:48:32;4.63;;;1.00;;
70981;SDS011;58640;51.320;9.456;2022-11-04T13:56:04;2.53;;;0.80;;
70981;SDS011;58640;51.320;9.456;2022-11-04T13:58:31;6.88;;;0.70;;
70981;SDS011;58640;51.320;9.456;2022-11-04T14:01:24;4.60;;;0.82;;
70981;SDS011;58640;51.320;9.456;2022-11-04T14:03:54;13.93;;;1.30;;
70981;SDS011;58640;51.320;9.456;2022-11-04T14:07:09;6.28;;;0.80;;
70981;SDS011;58640;51.320;9.456;2022-11-04T14:14:54;2.17;;;0.70;;
70981;SDS011;58640;51.320;9.456;2022-11-04T14:27:50;4.32;;;0.98;;
70981;SDS011;58640;51.320;9.456;2022-11-04T14:30:35;5.88;;;0.85;;
70981;SDS011;58640;51.320;9.456;2022-11-04T14:33:16;4.40;;;1.52;;
70981;SDS011;58640;51.320;9.456;2022-11-04T14:35:50;3.67;;;0.82;;
70981;SDS011;58640;51.320;9.456;2022-11-04T14:38:21;5.65;;;0.70;;
70981;SDS011;58640;51.320;9.456;2022-11-04T14:40:51;5.80;;;1.00;;
70981;SDS011;58640;51.320;9.456;2022-11-04T14:43:37;2.58;;;0.90;;
70981;SDS011;58640;51.320;9.456;2022-11-04T14:46:05;9.82;;;1.92;;
70981;SDS011;58640;51.320;9.456;2022-11-04T14:48:32;7.80;;;1.27;;
70981;SDS011;58640;51.320;9.456;2022-11-04T14:50:58;4.60;;;1.20;;
70981;SDS011;58640;51.320;9.456;2022-11-04T14:53:31;6.78;;;1.50;;
70981;SDS011;58640;51.320;9.456;2022-11-04T14:56:02;4.15;;;1.17;;
70981;SDS011;58640;51.320;9.456;2022-11-04T14:58:48;3.47;;;0.80;;
70981;SDS011;58640;51.320;9.456;2022-11-04T15:01:20;2.60;;;0.80;;
70981;SDS011;58640;51.320;9.456;2022-11-04T15:03:47;3.75;;;1.00;;
70981;SDS011;58640;51.320;9.456;2022-11-04T15:06:12;7.32;;;1.40;;
70981;SDS011;58640;51.320;9.456;2022-11-04T15:08:48;4.97;;;1.40;;
70981;SDS011;58640;51.320;9.456;2022-11-04T15:11:15;4.30;;;1.00;;
70981;SDS011;58640;51.320;9.456;2022-11-04T15:14:03;5.05;;;1.15;;
70981;SDS011;58640;51.320;9.456;2022-11-04T15:16:36;4.80;;;0.85;;
70981;SDS011;58640;51.320;9.456;2022-11-04T15:19:01;5.40;;;0.90;;
70981;SDS011;58640;51.320;9.456;2022-11-04T15:21:27;4.35;;;0.90;;
70981;SDS011;58640;51.320;9.456;2022-11-04T15:23:52;3.42;;;0.90;;
70981;SDS011;58640;51.320;9.456;2022-11-04T15:28:51;5.22;;;0.93;;
70981;SDS011;58640;51.320;9.456;2022-11-04T15:31:18;3.45;;;1.40;;
70981;SDS011;58640;51.320;9.456;2022-11-04T15:34:04;3.75;;;1.20;;
70981;SDS011;58640;51.320;9.456;2022-11-04T15:36:36;5.40;;;1.60;;
70981;SDS011;58640;51.320;9.456;2022-11-04T15:39:09;5.60;;;1.70;;
70981;SDS011;58640;51.320;9.456;2022-11-04T15:41:39;5.95;;;2.00;;
70981;SDS011;58640;51.320;9.456;2022-11-04T15:46:57;6.07;;;2.63;;
70981;SDS011;58640;51.320;9.456;2022-11-04T15:49:29;3.92;;;1.67;;
70981;SDS011;58640;51.320;9.456;2022-11-04T15:51:57;4.45;;;1.70;;
70981;SDS011;58640;51.320;9.456;2022-11-04T15:54:26;4.30;;;1.92;;
70981;SDS011;58640;51.320;9.456;2022-11-04T15:56:53;5.93;;;1.80;;
70981;SDS011;58640;51.320;9.456;2022-11-04T15:59:23;3.47;;;1.50;;
70981;SDS011;58640;51.320;9.456;2022-11-04T16:01:57;4.65;;;1.90;;
70981;SDS011;58640;51.320;9.456;2022-11-04T16:04:24;11.32;;;2.65;;
70981;SDS011;58640;51.320;9.456;2022-11-04T16:07:04;5.63;;;2.13;;
70981;SDS011;58640;51.320;9.456;2022-11-04T16:09:53;7.53;;;2.90;;
70981;SDS011;58640;51.320;9.456;2022-11-04T16:14:50;4.45;;;2.25;;
70981;SDS011;58640;51.320;9.456;2022-11-04T16:17:17;4.70;;;1.92;;
70981;SDS011;58640;51.320;9.456;2022-11-04T16:19:47;6.38;;;2.30;;
70981;SDS011;58640;51.320;9.456;2022-11-04T16:22:27;5.50;;;2.60;;
70981;SDS011;58640;51.320;9.456;2022-11-04T16:24:54;10.23;;;3.08;;
70981;SDS011;58640;51.320;9.456;2022-11-04T16:27:21;8.05;;;2.53;;
70981;SDS011;58640;51.320;9.456;2022-11-04T16:29:55;10.48;;;3.40;;
70981;SDS011;58640;51.320;9.456;2022-11-04T16:32:27;8.88;;;2.78;;
70981;SDS011;58640;51.320;9.456;2022-11-04T16:34:56;11.18;;;3.17;;
70981;SDS011;58640;51.320;9.456;2022-11-04T16:37:25;12.48;;;4.15;;
70981;SDS011;58640;51.320;9.456;2022-11-04T16:39:51;7.47;;;3.05;;
70981;SDS011;58640;51.320;9.456;2022-11-04T16:42:17;5.38;;;2.65;;
70981;SDS011;58640;51.320;9.456;2022-11-04T16:44:50;8.10;;;3.15;;
70981;SDS011;58640;51.320;9.456;2022-11-04T16:47:19;6.43;;;2.90;;
70981;SDS011;58640;51.320;9.456;2022-11-04T16:49:45;7.65;;;3.22;;
70981;SDS011;58640;51.320;9.456;2022-11-04T16:52:14;10.23;;;3.35;;
70981;SDS011;58640;51.320;9.456;2022-11-04T16:54:46;6.85;;;3.10;;
70981;SDS011;58640;51.320;9.456;2022-11-04T16:57:12;7.95;;;3.63;;
70981;SDS011;58640;51.320;9.456;2022-11-04T16:59:39;10.55;;;3.88;;
70981;SDS011;58640;51.320;9.456;2022-11-04T17:02:47;8.10;;;3.33;;
70981;SDS011;58640;51.320;9.456;2022-11-04T17:05:01;8.25;;;3.85;;
70981;SDS011;58640;51.320;9.456;2022-11-04T17:07:28;8.32;;;3.70;;
70981;SDS011;58640;51.320;9.456;2022-11-04T17:09:54;9.60;;;4.25;;
70981;SDS011;58640;51.320;9.456;2022-11-04T17:12:19;11.68;;;4.30;;
70981;SDS011;58640;51.320;9.456;2022-11-04T17:14:44;12.10;;;4.47;;
70981;SDS011;58640;51.320;9.456;2022-11-04T17:17:10;8.63;;;3.30;;
70981;SDS011;58640;51.320;9.456;2022-11-04T17:19:35;10.40;;;3.28;;
70981;SDS011;58640;51.320;9.456;2022-11-04T17:22:01;14.77;;;3.50;;
70981;SDS011;58640;51.320;9.456;2022-11-04T17:24:30;8.80;;;3.67;;
70981;SDS011;58640;51.320;9.456;2022-11-04T17:26:56;11.07;;;3.60;;
70981;SDS011;58640;51.320;9.456;2022-11-04T17:29:22;6.05;;;3.30;;
70981;SDS011;58640;51.320;9.456;2022-11-04T17:31:47;8.05;;;2.33;;
70981;SDS011;58640;51.320;9.456;2022-11-04T17:34:13;9.82;;;3.58;;
70981;SDS011;58640;51.320;9.456;2022-11-04T17:36:38;8.35;;;2.97;;
70981;SDS011;58640;51.320;9.456;2022-11-04T17:39:03;6.00;;;2.50;;
70981;SDS011;58640;51.320;9.456;2022-11-04T17:41:29;7.35;;;2.35;;
70981;SDS011;58640;51.320;9.456;2022-11-04T17:44:13;7.68;;;3.33;;
70981;SDS011;58640;51.320;9.456;2022-11-04T17:46:38;7.55;;;2.75;;